Time;durP1;ratioP1;P1;durP2;ratioP2;P2;SDS_P1;SDS_P2;PMS_P1;PMS_P2;Temp;Humidity;BMP_temperature;BMP_pressure;BME280_temperature;BME280_humidity;BME280_pressure;Samples;Min_cycle;Max_cycle;Signal;HPM_P1;HPM_P2
2022/09/09 00:00:17;;;;;;;5.13;0.70;;;17.10;99.90;;;;;;5030100;28;20431;-77
2022/09/09 00:03:16;;;;;;;6.43;1.00;;;17.30;99.90;;;;;;5028601;28;20233;-77
2022/09/09 00:06:21;;;;;;;7.03;0.77;;;17.20;99.90;;;;;;5029991;28;21018;-78
2022/09/09 00:09:08;;;;;;;2.03;0.67;;;17.30;99.90;;;;;;5029740;28;20467;-77
2022/09/09 00:12:03;;;;;;;3.43;0.80;;;17.20;99.90;;;;;;5029535;28;20434;-76
2022/09/09 00:14:38;;;;;;;3.20;0.60;;;17.20;99.90;;;;;;5028301;28;20523;-77
2022/09/09 00:17:12;;;;;;;2.83;0.83;;;17.20;99.90;;;;;;5029910;28;20424;-75
2022/09/09 00:19:51;;;;;;;1.37;0.73;;;17.10;99.90;;;;;;5029814;28;20418;-77
2022/09/09 00:22:20;;;;;;;1.27;0.60;;;17.10;99.90;;;;;;5029487;28;21284;-77
2022/09/09 00:24:54;;;;;;;5.80;0.90;;;17.10;99.90;;;;;;5029571;28;20918;-78
2022/09/09 00:27:42;;;;;;;3.20;0.90;;;17.30;99.90;;;;;;5012087;28;20537;-78
2022/09/09 00:30:14;;;;;;;8.00;1.00;;;17.30;99.90;;;;;;5027862;28;21027;-78
2022/09/09 00:32:41;;;;;;;3.97;1.10;;;17.40;99.90;;;;;;5027916;28;21049;-76
2022/09/09 00:35:24;;;;;;;2.80;0.70;;;17.40;99.90;;;;;;5029191;28;20451;-77
2022/09/09 00:37:54;;;;;;;2.40;0.80;;;17.30;99.90;;;;;;5029216;28;20418;-76
2022/09/09 00:40:38;;;;;;;8.43;0.70;;;17.10;99.90;;;;;;5027858;28;20439;-76
2022/09/09 00:43:15;;;;;;;2.40;0.80;;;17.00;99.90;;;;;;5029232;28;20481;-76
2022/09/09 00:46:07;;;;;;;3.93;0.90;;;17.00;99.90;;;;;;5029524;28;20409;-76
2022/09/09 00:48:53;;;;;;;4.97;1.33;;;17.00;99.90;;;;;;5029300;28;20954;-77
2022/09/09 00:51:40;;;;;;;1.20;0.60;;;17.10;99.90;;;;;;5010998;28;20883;-77
2022/09/09 00:54:28;;;;;;;4.00;0.90;;;17.10;99.90;;;;;;5028824;28;20964;-76
2022/09/09 00:57:06;;;;;;;3.03;0.83;;;17.20;99.90;;;;;;5029085;28;20429;-76
2022/09/09 00:59:42;;;;;;;3.90;0.87;;;17.30;99.90;;;;;;5028761;28;20803;-75
2022/09/09 01:02:18;;;;;;;8.47;1.00;;;17.30;99.90;;;;;;5029612;28;20494;-76
2022/09/09 01:04:44;;;;;;;3.13;0.90;;;17.60;99.90;;;;;;5027649;28;20428;-76
2022/09/09 01:07:18;;;;;;;1.43;0.60;;;17.50;99.90;;;;;;5028628;28;20769;-76
2022/09/09 01:09:56;;;;;;;3.30;0.83;;;17.40;99.90;;;;;;5027158;28;20449;-76
2022/09/09 01:12:40;;;;;;;4.33;0.70;;;17.30;99.90;;;;;;5028497;28;20454;-75
2022/09/09 01:15:16;;;;;;;1.53;0.90;;;17.30;99.90;;;;;;5028591;28;20458;-74
2022/09/09 01:17:45;;;;;;;4.63;0.97;;;17.20;99.90;;;;;;5028460;28;20841;-74
2022/09/09 01:20:28;;;;;;;3.37;0.80;;;17.10;99.90;;;;;;5028531;28;20478;-73
2022/09/09 01:23:12;;;;;;;4.10;0.83;;;17.00;99.90;;;;;;5028241;28;20999;-73
2022/09/09 01:25:44;;;;;;;5.43;1.10;;;17.00;99.90;;;;;;5028654;28;20421;-76
2022/09/09 01:28:21;;;;;;;4.10;1.10;;;16.90;99.90;;;;;;5026792;28;20433;-74
2022/09/09 01:30:47;;;;;;;2.40;0.83;;;17.00;99.90;;;;;;5027272;28;20421;-76
2022/09/09 01:33:16;;;;;;;1.83;0.90;;;16.90;99.90;;;;;;5027001;28;20934;-76
2022/09/09 01:35:45;;;;;;;3.27;0.70;;;16.90;99.90;;;;;;5028331;28;20514;-76
2022/09/09 01:38:11;;;;;;;1.40;0.70;;;16.90;99.90;;;;;;5028436;28;20417;-76
2022/09/09 01:40:36;;;;;;;3.10;1.00;;;16.90;99.90;;;;;;5026832;28;20524;-76
2022/09/09 01:43:03;;;;;;;2.23;0.60;;;16.90;99.90;;;;;;5031094;28;20471;-76
2022/09/09 01:45:30;;;;;;;8.00;1.00;;;17.00;99.90;;;;;;5030799;28;20203;-75
2022/09/09 01:47:56;;;;;;;3.10;0.90;;;17.00;99.90;;;;;;5030578;28;20429;-75
2022/09/09 01:50:22;;;;;;;4.33;1.10;;;16.90;99.90;;;;;;5032163;28;20458;-75
2022/09/09 01:52:55;;;;;;;2.70;1.00;;;16.80;99.90;;;;;;5032087;28;21019;-75
2022/09/09 01:55:33;;;;;;;4.03;1.17;;;16.40;99.90;;;;;;5031989;28;20411;-75
2022/09/09 01:58:49;;;;;;;2.30;1.13;;;16.10;99.90;;;;;;5032083;28;20417;-75
2022/09/09 02:01:35;;;;;;;6.97;1.77;;;16.00;99.90;;;;;;4989524;28;20479;-75
2022/09/09 02:04:07;;;;;;;9.13;1.87;;;15.70;99.90;;;;;;4989732;28;20414;-75
2022/09/09 02:06:39;;;;;;;12.27;1.83;;;15.50;99.90;;;;;;5016959;28;20622;-75
2022/09/09 02:09:07;;;;;;;6.43;1.77;;;15.30;99.90;;;;;;5030345;28;20431;-75
2022/09/09 02:11:33;;;;;;;6.13;1.50;;;15.20;99.90;;;;;;5031725;28;21022;-75
2022/09/09 02:14:12;;;;;;;10.43;1.50;;;15.10;99.90;;;;;;5030140;28;20455;-75
2022/09/09 02:16:56;;;;;;;5.30;1.53;;;15.00;99.90;;;;;;5031746;28;20423;-75
2022/09/09 02:19:25;;;;;;;7.50;2.03;;;14.90;99.90;;;;;;5031839;28;20746;-75
2022/09/09 02:21:53;;;;;;;3.90;1.90;;;14.80;99.90;;;;;;5031531;28;20463;-75
2022/09/09 02:24:19;;;;;;;3.03;1.60;;;14.70;99.90;;;;;;5031559;28;20424;-75
2022/09/09 02:26:47;;;;;;;2.73;1.70;;;14.70;99.90;;;;;;5031585;28;20430;-75
2022/09/09 02:29:17;;;;;;;3.60;1.60;;;14.70;99.90;;;;;;5029982;28;20184;-75
2022/09/09 02:31:46;;;;;;;2.97;1.40;;;14.70;99.90;;;;;;5031337;28;20451;-75
2022/09/09 02:34:14;;;;;;;10.07;1.70;;;14.60;99.90;;;;;;5031377;28;20896;-75
2022/09/09 02:36:43;;;;;;;5.17;1.67;;;14.50;99.90;;;;;;5029648;28;20867;-75
2022/09/09 02:39:10;;;;;;;5.87;2.77;;;14.40;99.90;;;;;;5031432;28;20475;-75
2022/09/09 02:41:39;;;;;;;3.00;1.30;;;14.40;99.90;;;;;;5031310;28;20474;-75
2022/09/09 02:44:19;;;;;;;10.17;1.67;;;14.40;99.90;;;;;;5031356;28;20416;-75
2022/09/09 02:46:48;;;;;;;3.40;1.00;;;14.50;99.90;;;;;;5031296;28;20773;-75
2022/09/09 02:49:35;;;;;;;6.27;1.10;;;14.60;99.90;;;;;;5032310;28;20502;-75
2022/09/09 02:52:05;;;;;;;3.90;1.10;;;14.70;99.90;;;;;;5031389;28;20515;-75
2022/09/09 02:54:33;;;;;;;9.07;1.27;;;14.70;99.90;;;;;;5030312;28;20513;-75
2022/09/09 02:57:10;;;;;;;3.67;0.90;;;14.80;99.90;;;;;;5031025;28;20473;-75
2022/09/09 02:59:36;;;;;;;3.33;0.90;;;14.80;99.90;;;;;;5030904;28;20411;-75
2022/09/09 03:02:02;;;;;;;2.77;1.10;;;14.90;99.90;;;;;;5030744;28;20507;-75
2022/09/09 03:04:28;;;;;;;1.60;1.20;;;15.10;99.90;;;;;;5030814;28;20420;-75
2022/09/09 03:06:53;;;;;;;3.67;1.00;;;15.10;99.90;;;;;;5030819;28;20926;-75
2022/09/09 03:09:19;;;;;;;4.53;0.97;;;15.20;99.90;;;;;;5030615;28;20234;-75
2022/09/09 03:11:47;;;;;;;5.33;1.10;;;15.20;99.90;;;;;;5030591;28;20206;-75
2022/09/09 03:14:13;;;;;;;3.43;1.63;;;15.20;99.90;;;;;;5030378;28;20205;-75
2022/09/09 03:16:38;;;;;;;3.50;1.00;;;15.20;99.90;;;;;;5030558;28;20424;-75
2022/09/09 03:19:04;;;;;;;6.10;1.40;;;15.20;99.90;;;;;;5030354;28;20220;-76
2022/09/09 03:21:29;;;;;;;4.63;1.10;;;15.30;99.90;;;;;;5030241;28;20567;-75
2022/09/09 03:23:57;;;;;;;5.20;1.50;;;15.30;99.90;;;;;;5030553;28;20182;-75
2022/09/09 03:26:24;;;;;;;8.17;1.30;;;15.30;99.90;;;;;;5030199;28;20241;-75
2022/09/09 03:28:51;;;;;;;6.10;1.40;;;15.40;99.90;;;;;;5028780;28;20444;-75
2022/09/09 03:31:18;;;;;;;4.90;1.57;;;15.40;99.90;;;;;;5012632;28;20899;-75
2022/09/09 03:33:43;;;;;;;4.07;1.37;;;15.40;99.90;;;;;;5030120;28;20409;-75
2022/09/09 03:36:12;;;;;;;8.83;1.40;;;15.40;99.90;;;;;;5028413;28;20458;-75
2022/09/09 03:38:41;;;;;;;5.00;1.03;;;15.40;99.90;;;;;;5030022;28;20190;-75
2022/09/09 03:41:07;;;;;;;5.63;0.90;;;15.50;99.90;;;;;;5029809;28;20447;-75
2022/09/09 03:43:34;;;;;;;3.60;1.40;;;15.60;99.90;;;;;;5029964;28;20507;-75
2022/09/09 03:45:59;;;;;;;1.77;1.10;;;15.80;99.90;;;;;;5029954;28;20419;-75
2022/09/09 03:48:27;;;;;;;3.23;0.90;;;15.80;99.90;;;;;;5029951;28;20431;-76
2022/09/09 03:50:55;;;;;;;5.70;1.10;;;15.80;99.90;;;;;;5028528;28;20211;-75
2022/09/09 03:53:24;;;;;;;6.10;0.93;;;15.80;99.90;;;;;;5029977;28;20456;-75
2022/09/09 03:55:54;;;;;;;6.00;1.13;;;15.80;99.90;;;;;;5029777;28;20845;-75
2022/09/09 03:58:29;;;;;;;2.77;1.03;;;15.70;99.90;;;;;;5029856;28;20502;-75
2022/09/09 04:00:54;;;;;;;2.87;1.00;;;15.60;99.90;;;;;;5029800;28;21109;-75
2022/09/09 04:03:24;;;;;;;8.10;2.60;;;15.60;99.90;;;;;;5029790;28;20416;-75
2022/09/09 04:05:53;;;;;;;6.97;1.30;;;15.50;99.90;;;;;;5028406;28;20535;-75
2022/09/09 04:08:20;;;;;;;2.50;1.00;;;15.30;99.90;;;;;;5029645;28;20428;-75
2022/09/09 04:10:47;;;;;;;4.87;1.00;;;15.20;99.90;;;;;;5029713;28;20458;-75
2022/09/09 04:13:16;;;;;;;6.47;1.17;;;15.10;99.90;;;;;;5029474;28;21065;-75
2022/09/09 04:15:43;;;;;;;5.07;1.17;;;15.10;99.90;;;;;;5029610;28;20434;-75
2022/09/09 04:18:08;;;;;;;2.90;0.83;;;15.10;99.90;;;;;;5029546;28;20423;-75
2022/09/09 04:20:34;;;;;;;2.40;0.87;;;15.10;99.90;;;;;;5029895;28;20484;-75
2022/09/09 04:23:00;;;;;;;2.90;0.80;;;15.10;99.90;;;;;;5029904;28;20301;-75
2022/09/09 04:25:26;;;;;;;2.73;1.50;;;15.30;99.90;;;;;;5028603;28;20516;-75
2022/09/09 04:27:56;;;;;;;10.70;1.57;;;15.30;99.90;;;;;;5028777;28;20200;-75
2022/09/09 04:30:22;;;;;;;4.97;1.27;;;15.40;99.90;;;;;;5030109;28;20185;-76
2022/09/09 04:32:47;;;;;;;4.47;0.93;;;15.40;99.90;;;;;;5030008;28;20454;-77
2022/09/09 04:35:13;;;;;;;5.50;2.20;;;15.40;99.90;;;;;;5029138;28;20537;-76
2022/09/09 04:37:39;;;;;;;1.67;1.00;;;15.40;99.90;;;;;;5030190;28;20221;-77
2022/09/09 04:40:05;;;;;;;2.60;1.53;;;15.30;99.90;;;;;;5029401;28;20183;-76
2022/09/09 04:42:38;;;;;;;1.50;0.80;;;15.20;99.90;;;;;;5029932;28;20213;-76
2022/09/09 04:45:05;;;;;;;2.50;0.80;;;15.20;99.90;;;;;;5029991;28;20866;-77
2022/09/09 04:47:30;;;;;;;4.47;1.37;;;15.20;99.90;;;;;;5029748;28;20895;-76
2022/09/09 04:49:56;;;;;;;5.03;1.13;;;15.20;99.90;;;;;;5029819;28;20438;-77
2022/09/09 04:52:22;;;;;;;4.73;1.30;;;15.30;99.90;;;;;;5029501;28;20227;-77
2022/09/09 04:54:48;;;;;;;4.40;1.00;;;15.20;99.90;;;;;;5027647;28;20192;-77
2022/09/09 04:57:13;;;;;;;5.60;1.03;;;15.20;99.90;;;;;;5027543;28;20606;-77
2022/09/09 04:59:39;;;;;;;5.27;1.30;;;15.20;99.90;;;;;;5030682;28;20420;-76
2022/09/09 05:02:05;;;;;;;2.27;1.00;;;15.10;99.90;;;;;;5030629;28;20220;-77
2022/09/09 05:04:31;;;;;;;3.43;1.07;;;15.00;99.90;;;;;;5031257;28;20186;-77
2022/09/09 05:06:57;;;;;;;4.97;1.90;;;15.10;99.90;;;;;;5030649;28;20788;-76
2022/09/09 05:09:22;;;;;;;3.20;1.13;;;15.20;99.90;;;;;;5030678;28;20658;-77
2022/09/09 05:11:48;;;;;;;1.20;1.10;;;15.20;99.90;;;;;;5031070;28;20212;-76
2022/09/09 05:14:14;;;;;;;3.17;0.90;;;15.20;99.90;;;;;;5028953;28;20483;-76
2022/09/09 05:16:40;;;;;;;6.03;1.13;;;15.20;99.90;;;;;;5031576;28;20452;-76
2022/09/09 05:19:07;;;;;;;3.13;1.20;;;15.20;99.90;;;;;;5036654;28;21318;-77
2022/09/09 05:21:33;;;;;;;3.93;0.90;;;15.10;99.90;;;;;;5036649;28;20280;-77
2022/09/09 05:24:00;;;;;;;3.67;0.93;;;15.10;99.90;;;;;;5036292;28;20514;-76
2022/09/09 05:26:25;;;;;;;3.30;1.43;;;15.10;99.90;;;;;;5036675;28;20222;-76
2022/09/09 05:28:51;;;;;;;4.50;0.90;;;15.10;99.90;;;;;;5033909;28;21230;-76
2022/09/09 05:31:18;;;;;;;3.73;1.00;;;15.10;99.90;;;;;;5034097;28;20583;-77
2022/09/09 05:33:45;;;;;;;6.33;1.00;;;15.20;99.90;;;;;;5035403;28;20488;-77
2022/09/09 05:36:18;;;;;;;1.53;0.80;;;15.30;99.90;;;;;;5035615;28;20793;-76
2022/09/09 05:38:44;;;;;;;3.07;0.90;;;15.40;99.90;;;;;;5035751;28;20414;-76
2022/09/09 05:41:11;;;;;;;4.37;1.50;;;15.40;99.90;;;;;;5001298;28;20530;-77
2022/09/09 05:43:38;;;;;;;6.90;1.13;;;15.40;99.90;;;;;;5035450;28;20429;-76
2022/09/09 05:46:12;;;;;;;1.47;0.70;;;15.40;99.90;;;;;;5033703;28;20486;-76
2022/09/09 05:48:43;;;;;;;3.00;1.40;;;15.40;99.90;;;;;;5034672;28;20407;-77
2022/09/09 05:51:17;;;;;;;5.57;1.10;;;15.40;99.90;;;;;;5034320;28;20475;-77
2022/09/09 05:53:44;;;;;;;3.33;0.90;;;15.50;99.90;;;;;;5034464;28;20408;-76
2022/09/09 05:56:12;;;;;;;1.53;1.00;;;15.50;99.90;;;;;;5033177;28;20451;-76
2022/09/09 05:58:38;;;;;;;2.80;1.07;;;15.50;99.90;;;;;;5033003;28;20427;-76
2022/09/09 06:01:09;;;;;;;3.23;1.23;;;15.60;99.90;;;;;;5034360;28;21073;-77
2022/09/09 06:03:36;;;;;;;3.07;1.17;;;15.60;99.90;;;;;;5034472;28;20427;-77
2022/09/09 06:06:05;;;;;;;3.63;0.90;;;15.60;99.90;;;;;;5033059;28;20411;-77
2022/09/09 06:08:32;;;;;;;3.83;1.00;;;15.70;99.90;;;;;;5034464;28;20514;-76
2022/09/09 06:11:03;;;;;;;4.80;1.20;;;15.90;99.90;;;;;;5034425;28;20446;-77
2022/09/09 06:13:29;;;;;;;3.27;0.93;;;15.90;99.90;;;;;;5032419;28;20523;-77
2022/09/09 06:15:55;;;;;;;1.00;0.70;;;16.00;99.90;;;;;;5034000;28;20423;-76
2022/09/09 06:18:21;;;;;;;1.67;1.03;;;16.00;99.90;;;;;;5032739;28;21059;-76
2022/09/09 06:21:01;;;;;;;3.70;1.20;;;16.20;99.90;;;;;;5033875;28;20289;-76
2022/09/09 06:23:28;;;;;;;4.70;1.20;;;16.40;99.90;;;;;;5034002;28;20186;-76
2022/09/09 06:26:11;;;;;;;2.77;0.83;;;16.40;99.90;;;;;;5034056;28;21053;-76
2022/09/09 06:28:37;;;;;;;1.70;1.13;;;16.50;99.90;;;;;;5032060;28;20489;-77
2022/09/09 06:31:09;;;;;;;6.23;1.60;;;16.60;99.90;;;;;;5030606;28;20448;-77
2022/09/09 06:33:40;;;;;;;2.47;1.00;;;16.60;99.90;;;;;;5029092;28;20417;-77
2022/09/09 06:36:11;;;;;;;3.37;1.07;;;16.70;99.90;;;;;;5030637;28;20459;-77
2022/09/09 06:38:37;;;;;;;3.63;1.00;;;16.70;99.90;;;;;;5029438;28;20769;-77
2022/09/09 06:41:05;;;;;;;1.13;0.90;;;16.80;99.90;;;;;;5028946;28;20436;-77
2022/09/09 06:43:31;;;;;;;4.17;1.40;;;16.80;99.90;;;;;;5030738;28;20182;-77
2022/09/09 06:45:57;;;;;;;4.00;1.10;;;16.80;99.90;;;;;;5030178;28;20487;-77
2022/09/09 06:48:25;;;;;;;4.10;1.37;;;16.90;99.90;;;;;;5030548;28;20181;-78
2022/09/09 06:51:00;;;;;;;2.30;1.40;;;16.90;99.90;;;;;;5029329;28;20432;-77
2022/09/09 06:53:27;;;;;;;4.97;1.40;;;16.80;99.90;;;;;;5030631;28;20423;-77
2022/09/09 06:55:52;;;;;;;2.73;1.00;;;16.90;99.90;;;;;;5029120;28;20458;-77
2022/09/09 06:58:18;;;;;;;2.80;0.97;;;17.00;99.90;;;;;;5030472;28;20917;-77
2022/09/09 07:00:44;;;;;;;1.20;0.70;;;16.90;99.90;;;;;;5030696;28;20648;-77
2022/09/09 07:03:10;;;;;;;5.03;1.33;;;17.10;99.90;;;;;;5030499;28;20216;-77
2022/09/09 07:05:36;;;;;;;3.80;1.13;;;17.20;99.90;;;;;;5030066;28;20597;-77
2022/09/09 07:08:02;;;;;;;5.43;1.17;;;17.30;99.90;;;;;;5029940;28;20426;-77
2022/09/09 07:10:28;;;;;;;4.20;0.90;;;17.40;99.90;;;;;;5028544;28;20428;-77
2022/09/09 07:12:54;;;;;;;6.00;1.07;;;17.40;99.90;;;;;;5028368;28;20230;-77
2022/09/09 07:15:21;;;;;;;5.13;0.80;;;17.50;99.90;;;;;;5028487;28;21056;-76
2022/09/09 07:17:47;;;;;;;6.73;1.77;;;17.50;99.90;;;;;;5029846;28;20587;-77
2022/09/09 07:20:14;;;;;;;5.30;0.93;;;17.50;99.90;;;;;;5028458;28;21232;-77
2022/09/09 07:22:40;;;;;;;3.43;1.43;;;17.60;99.90;;;;;;5029908;28;20509;-77
2022/09/09 07:25:07;;;;;;;2.90;0.80;;;17.70;99.90;;;;;;5029561;28;20449;-77
2022/09/09 07:27:33;;;;;;;6.80;1.63;;;17.80;99.90;;;;;;5029585;28;20426;-77
2022/09/09 07:29:58;;;;;;;2.57;0.90;;;17.90;99.90;;;;;;5029398;28;20425;-77
2022/09/09 07:32:25;;;;;;;5.60;1.13;;;17.80;99.90;;;;;;5029826;28;20208;-78
2022/09/09 07:34:51;;;;;;;2.77;0.97;;;17.80;99.90;;;;;;5029760;28;20185;-77
2022/09/09 07:37:17;;;;;;;3.27;1.17;;;17.90;99.90;;;;;;5029633;28;20434;-77
2022/09/09 07:39:43;;;;;;;2.93;0.87;;;18.00;99.90;;;;;;5029214;28;20439;-77
2022/09/09 07:42:11;;;;;;;4.23;1.47;;;18.00;99.90;;;;;;5011655;28;20500;-76
2022/09/09 07:44:39;;;;;;;4.77;1.23;;;18.10;99.90;;;;;;5029396;28;20419;-77
2022/09/09 07:47:05;;;;;;;4.30;1.33;;;18.10;99.90;;;;;;5029612;28;20420;-77
2022/09/09 07:49:31;;;;;;;3.73;1.30;;;18.20;99.90;;;;;;5029616;28;20472;-77
2022/09/09 07:51:57;;;;;;;4.30;1.17;;;18.30;99.90;;;;;;5029558;28;20482;-77
2022/09/09 07:54:23;;;;;;;1.90;0.87;;;18.40;99.90;;;;;;5029289;28;20455;-77
2022/09/09 07:56:49;;;;;;;4.87;1.20;;;18.50;99.90;;;;;;5029476;28;20187;-77
2022/09/09 07:59:16;;;;;;;1.73;1.33;;;18.60;99.90;;;;;;5029486;28;20461;-76
2022/09/09 08:02:00;;;;;;;2.13;1.10;;;18.90;99.90;;;;;;5028134;28;20506;-77
2022/09/09 08:04:26;;;;;;;1.93;0.83;;;19.10;99.90;;;;;;5029312;28;20807;-77
2022/09/09 08:06:57;;;;;;;2.40;0.97;;;19.30;99.90;;;;;;5029346;28;20498;-77
2022/09/09 08:09:28;;;;;;;4.00;1.30;;;19.20;99.90;;;;;;5029189;28;20422;-76
2022/09/09 08:12:00;;;;;;;2.77;1.10;;;19.30;99.90;;;;;;5027467;28;20463;-77
2022/09/09 08:14:26;;;;;;;6.83;1.10;;;19.40;99.90;;;;;;5028787;28;20478;-77
2022/09/09 08:16:54;;;;;;;2.70;1.00;;;19.50;99.90;;;;;;5029009;28;20430;-77
2022/09/09 08:19:19;;;;;;;9.00;1.17;;;19.80;99.90;;;;;;5028295;28;20200;-78
2022/09/09 08:21:45;;;;;;;3.83;1.17;;;19.50;99.90;;;;;;5027112;28;20984;-75
2022/09/09 08:24:14;;;;;;;3.40;1.30;;;19.50;99.90;;;;;;5027472;28;20681;-75
2022/09/09 08:26:43;;;;;;;3.53;1.33;;;19.40;99.90;;;;;;5028692;28;20425;-75
2022/09/09 08:29:11;;;;;;;2.70;1.10;;;19.40;99.90;;;;;;5028450;28;20457;-76
2022/09/09 08:31:51;;;;;;;12.33;1.20;;;19.00;99.90;;;;;;5028348;28;20974;-76
2022/09/09 08:34:19;;;;;;;6.30;1.13;;;19.30;99.90;;;;;;5028635;28;20429;-75
2022/09/09 08:36:46;;;;;;;6.97;1.80;;;19.10;99.90;;;;;;5027629;28;20422;-75
2022/09/09 08:39:15;;;;;;;2.30;1.43;;;19.00;99.90;;;;;;5027546;28;20436;-75
2022/09/09 08:41:46;;;;;;;3.67;1.43;;;19.00;99.90;;;;;;5027379;28;20481;-77
2022/09/09 08:44:40;;;;;;;3.63;1.27;;;19.00;99.90;;;;;;5029422;28;20782;-78
2022/09/09 08:47:40;;;;;;;2.83;1.27;;;19.10;99.90;;;;;;5029544;28;20422;-78
2022/09/09 08:50:11;;;;;;;1.70;0.93;;;19.30;99.90;;;;;;5029227;28;20777;-77
2022/09/09 08:53:03;;;;;;;12.27;1.47;;;19.50;99.90;;;;;;5028265;28;20435;-78
2022/09/09 08:55:51;;;;;;;9.60;1.80;;;19.60;99.90;;;;;;5029658;28;20421;-77
2022/09/09 08:58:34;;;;;;;3.87;1.37;;;19.50;99.90;;;;;;5029209;28;20399;-78
2022/09/09 09:01:28;;;;;;;4.70;1.20;;;19.90;99.90;;;;;;5029239;28;20431;-77
2022/09/09 09:03:57;;;;;;;2.53;1.17;;;20.10;99.90;;;;;;5029380;28;20477;-78
2022/09/09 09:06:35;;;;;;;3.07;1.00;;;20.50;99.90;;;;;;5029111;28;20405;-77
2022/09/09 09:09:32;;;;;;;6.63;1.00;;;21.00;99.90;;;;;;5027374;28;20951;-78
2022/09/09 09:12:01;;;;;;;7.27;1.00;;;21.00;99.90;;;;;;5012464;28;20434;-78
2022/09/09 09:14:33;;;;;;;5.03;1.00;;;21.40;99.90;;;;;;5028786;28;20920;-77
2022/09/09 09:17:10;;;;;;;2.70;0.73;;;21.40;99.90;;;;;;5027526;28;20838;-77
2022/09/09 09:19:40;;;;;;;3.30;1.30;;;21.30;99.90;;;;;;5027572;28;20411;-77
2022/09/09 09:22:09;;;;;;;3.60;1.30;;;21.40;99.90;;;;;;5028248;28;20479;-78
2022/09/09 09:24:42;;;;;;;4.33;1.37;;;21.80;99.90;;;;;;5028238;28;20417;-77
2022/09/09 09:27:15;;;;;;;12.37;1.17;;;21.70;99.90;;;;;;5028099;28;20426;-78
2022/09/09 09:29:43;;;;;;;4.83;1.40;;;21.50;99.90;;;;;;5028284;28;20399;-77
2022/09/09 09:32:16;;;;;;;6.63;0.93;;;21.80;99.90;;;;;;5026816;28;20447;-78
2022/09/09 09:34:42;;;;;;;4.50;1.00;;;22.40;99.90;;;;;;5026688;28;20496;-78
2022/09/09 09:37:22;;;;;;;1.40;0.83;;;22.70;99.90;;;;;;5026624;28;21038;-77
2022/09/09 09:39:48;;;;;;;3.43;0.70;;;23.00;99.90;;;;;;5028115;28;20934;-78
2022/09/09 09:42:17;;;;;;;3.63;0.80;;;22.90;99.60;;;;;;5028035;28;20481;-78
2022/09/09 09:44:43;;;;;;;4.63;1.53;;;23.00;99.70;;;;;;5027891;28;20425;-77
2022/09/09 09:47:16;;;;;;;3.33;0.93;;;23.50;98.20;;;;;;5026372;28;20418;-77
2022/09/09 09:49:59;;;;;;;4.60;1.00;;;23.30;97.70;;;;;;5026434;28;20507;-77
2022/09/09 09:52:28;;;;;;;4.77;0.97;;;23.90;96.10;;;;;;5026400;28;20490;-78
2022/09/09 09:54:55;;;;;;;3.70;1.30;;;24.60;94.40;;;;;;5026268;28;20430;-77
2022/09/09 09:57:31;;;;;;;1.90;0.80;;;24.90;93.40;;;;;;5027986;28;20422;-78
2022/09/09 10:00:20;;;;;;;4.63;0.90;;;25.10;91.70;;;;;;5028182;28;20511;-77
2022/09/09 10:02:47;;;;;;;2.83;1.00;;;25.10;91.80;;;;;;5028451;28;21111;-77
2022/09/09 10:05:19;;;;;;;1.97;0.90;;;25.80;92.70;;;;;;5031782;28;20487;-78
2022/09/09 10:07:59;;;;;;;1.77;0.80;;;26.10;82.60;;;;;;5031980;28;20418;-77
2022/09/09 10:10:44;;;;;;;3.07;0.97;;;25.80;88.80;;;;;;5033391;28;20935;-77
2022/09/09 10:13:36;;;;;;;5.10;1.10;;;26.20;90.30;;;;;;5032095;28;20440;-78
2022/09/09 10:16:30;;;;;;;2.43;0.83;;;26.10;84.50;;;;;;5026856;28;20434;-78
2022/09/09 10:19:15;;;;;;;6.20;1.37;;;26.00;86.00;;;;;;5031549;28;20418;-77
2022/09/09 10:22:02;;;;;;;7.80;1.37;;;26.40;84.30;;;;;;5031634;28;20462;-78
2022/09/09 10:24:52;;;;;;;5.67;1.13;;;25.60;81.20;;;;;;5032208;28;20418;-77
2022/09/09 10:27:39;;;;;;;5.53;0.87;;;25.60;82.40;;;;;;5032095;28;20410;-77
2022/09/09 10:30:22;;;;;;;6.73;1.03;;;24.70;81.60;;;;;;5032012;28;20416;-77
2022/09/09 10:33:03;;;;;;;4.10;0.70;;;24.30;85.70;;;;;;5032000;28;20448;-77
2022/09/09 10:35:43;;;;;;;2.53;0.97;;;24.10;87.40;;;;;;5031754;28;20417;-77
2022/09/09 10:38:16;;;;;;;3.83;1.07;;;24.00;84.70;;;;;;5031685;28;20418;-78
2022/09/09 10:41:19;;;;;;;2.87;1.10;;;23.80;85.80;;;;;;5030090;28;20428;-77
2022/09/09 10:44:25;;;;;;;4.23;1.10;;;24.10;85.80;;;;;;5031212;28;20543;-78
2022/09/09 10:47:15;;;;;;;1.93;1.23;;;24.50;83.10;;;;;;5031863;28;20616;-77
2022/09/09 10:50:02;;;;;;;5.53;0.90;;;24.10;86.20;;;;;;5032780;28;20909;-77
2022/09/09 10:52:33;;;;;;;3.90;0.90;;;23.60;86.00;;;;;;5030879;28;20495;-77
2022/09/09 10:55:20;;;;;;;2.80;0.93;;;23.50;87.80;;;;;;5029500;28;20421;-77
2022/09/09 10:57:48;;;;;;;2.33;0.80;;;23.30;83.00;;;;;;5030538;28;20447;-77
2022/09/09 11:00:19;;;;;;;3.97;0.87;;;23.00;82.70;;;;;;5030763;28;20409;-76
2022/09/09 11:03:04;;;;;;;4.17;0.90;;;22.70;84.20;;;;;;5030586;28;20470;-76
2022/09/09 11:05:33;;;;;;;4.73;1.20;;;22.90;84.60;;;;;;5029083;28;20422;-76
2022/09/09 11:08:22;;;;;;;4.70;0.80;;;23.50;84.40;;;;;;5030327;28;20451;-77
2022/09/09 11:10:58;;;;;;;4.17;1.00;;;24.50;85.60;;;;;;5030490;28;20435;-77
2022/09/09 11:13:43;;;;;;;1.43;0.63;;;25.00;79.90;;;;;;5028991;28;20454;-77
2022/09/09 11:16:47;;;;;;;1.67;0.60;;;25.20;74.00;;;;;;5028189;28;20436;-77
2022/09/09 11:19:39;;;;;;;1.47;0.53;;;25.40;74.50;;;;;;5017817;28;20532;-77
2022/09/09 11:22:36;;;;;;;6.77;1.40;;;25.50;71.20;;;;;;5030007;28;20479;-77
2022/09/09 11:25:08;;;;;;;4.57;0.90;;;25.70;70.80;;;;;;5029950;28;20449;-77
2022/09/09 11:27:43;;;;;;;3.50;1.00;;;25.90;72.10;;;;;;5030078;28;20540;-76
2022/09/09 11:30:26;;;;;;;8.50;1.50;;;25.50;72.00;;;;;;5030248;28;20420;-78
2022/09/09 11:33:24;;;;;;;6.20;0.70;;;24.90;70.40;;;;;;5028564;28;20455;-77
2022/09/09 11:36:21;;;;;;;2.97;0.70;;;25.20;72.10;;;;;;5006637;28;20428;-77
2022/09/09 11:38:57;;;;;;;2.33;0.70;;;25.90;72.30;;;;;;5029820;28;20418;-77
2022/09/09 11:41:24;;;;;;;1.53;0.83;;;24.90;71.80;;;;;;5030056;28;20934;-77
2022/09/09 11:43:51;;;;;;;2.43;0.90;;;25.00;75.90;;;;;;5029751;28;20422;-76
2022/09/09 11:46:20;;;;;;;3.17;0.90;;;25.10;73.40;;;;;;5028355;28;20424;-77
2022/09/09 11:48:58;;;;;;;1.50;0.80;;;25.40;75.10;;;;;;5029586;28;20470;-76
2022/09/09 11:51:25;;;;;;;3.63;1.27;;;24.50;79.20;;;;;;5032425;28;20428;-76
2022/09/09 11:53:57;;;;;;;3.27;0.90;;;23.80;83.30;;;;;;5028859;28;20429;-76
2022/09/09 11:56:43;;;;;;;3.67;1.00;;;23.10;85.50;;;;;;5028533;28;20473;-75
2022/09/09 11:59:27;;;;;;;3.10;2.80;;;22.50;87.80;;;;;;5046968;28;20431;-75
2022/09/09 12:02:00;;;;;;;3.00;1.13;;;22.30;90.60;;;;;;5049150;28;20472;-74
2022/09/09 12:04:28;;;;;;;3.10;0.90;;;22.70;91.80;;;;;;5049233;28;20434;-76
2022/09/09 12:07:00;;;;;;;1.87;0.70;;;22.80;90.00;;;;;;5046237;28;20450;-76
2022/09/09 12:09:45;;;;;;;1.30;0.80;;;22.90;91.10;;;;;;5031221;28;20425;-76
2022/09/09 12:12:11;;;;;;;2.60;0.67;;;23.10;91.80;;;;;;5029447;28;20433;-76
2022/09/09 12:14:59;;;;;;;2.87;0.70;;;23.50;91.20;;;;;;5029632;28;20416;-76
2022/09/09 12:17:27;;;;;;;3.13;0.80;;;24.00;86.40;;;;;;5027238;28;20940;-76
2022/09/09 12:20:22;;;;;;;1.77;0.50;;;24.90;87.30;;;;;;5028587;28;20565;-75
2022/09/09 12:23:18;;;;;;;1.97;0.90;;;25.20;82.20;;;;;;5028017;28;20473;-74
2022/09/09 12:25:53;;;;;;;2.70;0.60;;;25.70;81.10;;;;;;5028314;28;20452;-76
2022/09/09 12:28:30;;;;;;;5.80;1.70;;;26.00;79.40;;;;;;5028105;28;20975;-76
2022/09/09 12:31:09;;;;;;;2.03;1.17;;;26.00;78.00;;;;;;5028771;28;20424;-76
2022/09/09 12:33:39;;;;;;;4.10;0.60;;;25.80;75.60;;;;;;5026803;28;20435;-76
2022/09/09 12:36:12;;;;;;;4.63;1.00;;;26.10;73.40;;;;;;5026937;28;20437;-76
2022/09/09 12:38:40;;;;;;;2.27;0.73;;;26.20;71.10;;;;;;5027144;28;20468;-76
2022/09/09 12:41:06;;;;;;;6.73;0.77;;;26.20;73.20;;;;;;5028525;28;20447;-76
2022/09/09 12:43:32;;;;;;;1.73;0.67;;;26.20;71.20;;;;;;5027795;28;20505;-76
2022/09/09 12:46:08;;;;;;;1.37;0.60;;;26.30;73.00;;;;;;5028058;28;20866;-76
2022/09/09 12:48:40;;;;;;;1.63;0.50;;;25.90;71.60;;;;;;5027997;28;20193;-76
2022/09/09 12:51:17;;;;;;;5.33;0.60;;;25.80;72.60;;;;;;5027838;28;20454;-76
2022/09/09 12:53:45;;;;;;;2.60;0.70;;;25.50;73.20;;;;;;5028293;28;20421;-77
2022/09/09 12:56:21;;;;;;;1.27;0.60;;;25.00;71.00;;;;;;5028012;28;20799;-78
2022/09/09 12:58:51;;;;;;;2.40;1.00;;;24.50;74.30;;;;;;5028072;28;20422;-77
2022/09/09 13:01:32;;;;;;;4.57;0.80;;;24.60;76.90;;;;;;5027727;28;20453;-76
2022/09/09 13:03:58;;;;;;;3.07;0.80;;;24.40;78.50;;;;;;5027658;28;20505;-76
2022/09/09 13:06:29;;;;;;;5.90;0.93;;;24.90;79.20;;;;;;5026533;28;20428;-76
2022/09/09 13:08:58;;;;;;;4.93;0.93;;;25.10;77.60;;;;;;5027497;28;20671;-78
2022/09/09 13:11:29;;;;;;;2.93;0.90;;;25.10;77.90;;;;;;5026157;28;20454;-78
2022/09/09 13:13:57;;;;;;;3.37;1.00;;;25.50;80.80;;;;;;5027609;28;20445;-77